createdAt,value
2023-02-27T00:01:02.045Z,1.50
2023-02-27T00:03:29.351Z,1.10
2023-02-27T00:06:02.831Z,1.20
2023-02-27T00:08:30.696Z,1.48
2023-02-27T00:10:58.155Z,1.55
2023-02-27T00:13:25.055Z,1.25
2023-02-27T00:15:52.119Z,1.48
2023-02-27T00:18:19.211Z,1.67
2023-02-27T00:20:47.058Z,1.48
2023-02-27T00:23:15.874Z,1.13
2023-02-27T00:28:28.546Z,1.23
2023-02-27T00:30:55.899Z,1.20
2023-02-27T00:33:23.046Z,1.52
2023-02-27T00:36:01.957Z,1.52
2023-02-27T00:38:29.661Z,1.25
2023-02-27T00:40:58.488Z,1.10
2023-02-27T00:43:25.899Z,1.27
2023-02-27T00:45:53.121Z,1.40
2023-02-27T00:48:21.481Z,1.00
2023-02-27T00:50:50.453Z,1.30
2023-02-27T00:54:24.286Z,1.15
2023-02-27T00:56:51.356Z,1.08
2023-02-27T00:59:18.937Z,1.50
2023-02-27T01:01:45.966Z,1.02
2023-02-27T01:04:13.734Z,1.60
2023-02-27T01:06:40.893Z,1.17
2023-02-27T01:09:08.088Z,1.25
2023-02-27T01:11:35.101Z,1.50
2023-02-27T01:14:03.245Z,1.38
2023-02-27T01:16:31.262Z,1.30
2023-02-27T01:18:58.974Z,1.63
2023-02-27T01:21:26.468Z,1.40
2023-02-27T01:23:53.968Z,1.20
2023-02-27T01:26:21.294Z,1.55
2023-02-27T01:28:48.291Z,1.45
2023-02-27T01:31:15.437Z,1.60
2023-02-27T01:33:43.002Z,1.10
2023-02-27T01:36:10.425Z,1.50
2023-02-27T01:38:38.432Z,3.55
2023-02-27T01:41:07.357Z,1.75
2023-02-27T01:44:20.300Z,1.40
2023-02-27T01:46:47.306Z,1.00
2023-02-27T01:49:45.684Z,1.55
2023-02-27T01:52:14.872Z,1.60
2023-02-27T01:54:43.510Z,1.65
2023-02-27T01:57:11.245Z,1.77
2023-02-27T01:59:53.552Z,1.65
2023-02-27T02:02:27.314Z,1.20
2023-02-27T02:04:59.218Z,1.20
2023-02-27T02:07:26.977Z,1.52
2023-02-27T02:09:59.102Z,1.30
2023-02-27T02:16:36.610Z,1.63
2023-02-27T02:19:24.111Z,2.22
2023-02-27T02:22:35.893Z,1.38
2023-02-27T02:26:02.902Z,1.50
2023-02-27T02:28:39.194Z,1.48
2023-02-27T02:31:33.289Z,1.45
2023-02-27T02:35:14.356Z,1.42
2023-02-27T02:37:52.942Z,1.85
2023-02-27T02:40:55.860Z,1.73
2023-02-27T02:44:06.266Z,1.52
2023-02-27T02:47:01.886Z,2.22
2023-02-27T02:54:01.045Z,1.88
2023-02-27T02:56:48.950Z,1.27
2023-02-27T02:59:35.467Z,1.88
2023-02-27T03:02:16.226Z,2.35
2023-02-27T03:04:55.926Z,2.22
2023-02-27T03:07:44.739Z,1.77
2023-02-27T03:10:14.419Z,2.13
2023-02-27T03:12:46.829Z,2.05
2023-02-27T03:15:41.921Z,2.13
2023-02-27T03:21:53.048Z,1.80
2023-02-27T03:24:27.237Z,1.77
2023-02-27T03:26:57.843Z,2.13
2023-02-27T03:29:35.564Z,1.85
2023-02-27T03:36:12.254Z,2.25
2023-02-27T03:39:08.807Z,1.95
2023-02-27T03:42:07.075Z,1.48
2023-02-27T03:45:49.386Z,1.95
2023-02-27T03:48:17.019Z,2.05
2023-02-27T03:50:46.448Z,1.52
2023-02-27T03:53:33.564Z,2.00
2023-02-27T03:56:05.392Z,2.55
2023-02-27T03:58:33.857Z,2.07
2023-02-27T04:01:01.697Z,2.40
2023-02-27T04:03:32.124Z,2.13
2023-02-27T04:06:19.157Z,2.28
2023-02-27T04:09:40.204Z,2.45
2023-02-27T04:12:54.220Z,2.47
2023-02-27T04:15:53.409Z,2.15
2023-02-27T04:19:04.935Z,2.28
2023-02-27T04:22:19.045Z,3.03
2023-02-27T04:34:13.904Z,2.40
2023-02-27T04:43:31.196Z,2.53
2023-02-27T04:46:01.795Z,2.90
2023-02-27T04:59:48.475Z,2.70
2023-02-27T05:05:47.583Z,2.72
2023-02-27T05:12:33.007Z,2.80
2023-02-27T05:18:33.508Z,2.97
2023-02-27T05:42:31.122Z,3.25
2023-02-27T05:45:07.834Z,3.53
2023-02-27T05:47:45.594Z,3.47
2023-02-27T06:35:47.798Z,3.83
2023-02-27T06:39:45.856Z,4.78
2023-02-27T06:42:12.969Z,4.18
2023-02-27T06:44:41.242Z,3.47
2023-02-27T06:48:03.217Z,4.28
2023-02-27T06:50:30.837Z,4.38
2023-02-27T06:53:24.488Z,4.20
2023-02-27T06:55:55.701Z,4.13
2023-02-27T06:58:24.892Z,4.55
2023-02-27T07:00:56.290Z,4.97
2023-02-27T07:03:23.513Z,4.47
2023-02-27T07:05:50.706Z,4.57
2023-02-27T07:12:44.001Z,4.18
2023-02-27T07:15:11.804Z,4.30
2023-02-27T07:17:39.378Z,4.40
2023-02-27T07:20:11.092Z,4.20
2023-02-27T07:25:09.762Z,4.53
2023-02-27T07:27:46.624Z,5.05
2023-02-27T07:31:34.120Z,4.88
2023-02-27T07:34:02.020Z,5.18
2023-02-27T07:36:31.286Z,4.88
2023-02-27T07:38:58.757Z,5.18
2023-02-27T07:41:30.646Z,6.13
2023-02-27T07:44:00.819Z,5.05
2023-02-27T07:47:16.054Z,4.57
2023-02-27T07:53:58.640Z,5.03
2023-02-27T07:56:29.116Z,4.88
2023-02-27T07:58:56.672Z,4.32
2023-02-27T08:01:25.642Z,5.18
2023-02-27T08:04:01.408Z,4.78
2023-02-27T08:06:30.234Z,5.43
2023-02-27T08:09:08.765Z,5.35
2023-02-27T08:11:36.056Z,6.38
2023-02-27T08:14:21.717Z,4.97
2023-02-27T08:16:49.518Z,5.43
2023-02-27T08:19:17.299Z,4.20
2023-02-27T08:21:53.934Z,4.85
2023-02-27T08:24:21.099Z,4.85
2023-02-27T08:26:48.183Z,5.15
2023-02-27T08:29:17.059Z,7.90
2023-02-27T08:31:45.393Z,9.77
2023-02-27T08:34:33.117Z,8.35
2023-02-27T08:37:00.446Z,5.88
2023-02-27T08:39:28.789Z,4.65
2023-02-27T08:41:57.779Z,4.63
2023-02-27T08:44:24.958Z,4.72
2023-02-27T08:46:52.034Z,5.47
2023-02-27T08:49:21.567Z,5.18
2023-02-27T08:51:48.856Z,5.18
2023-02-27T08:54:15.883Z,6.05
2023-02-27T08:56:42.908Z,5.90
2023-02-27T08:59:13.163Z,4.97
2023-02-27T09:01:41.093Z,5.60
2023-02-27T09:04:08.797Z,4.60
2023-02-27T09:06:36.966Z,3.95
2023-02-27T09:09:04.740Z,4.40
2023-02-27T09:11:31.849Z,4.07
2023-02-27T09:13:59.659Z,3.70
2023-02-27T09:16:27.602Z,3.83
2023-02-27T09:18:55.125Z,2.70
2023-02-27T09:21:25.790Z,3.28
2023-02-27T09:23:53.799Z,3.13
2023-02-27T09:26:39.765Z,3.03
2023-02-27T09:29:09.396Z,2.78
2023-02-27T09:31:37.693Z,3.00
2023-02-27T09:34:05.399Z,2.67
2023-02-27T09:36:34.280Z,3.33
2023-02-27T09:39:03.316Z,2.53
2023-02-27T09:42:06.654Z,2.60
2023-02-27T09:44:47.334Z,2.83
2023-02-27T09:47:37.506Z,2.53
2023-02-27T09:50:11.950Z,2.47
2023-02-27T09:52:40.754Z,2.15
2023-02-27T09:55:21.521Z,2.40
2023-02-27T09:58:10.597Z,1.55
2023-02-27T10:00:51.309Z,1.73
2023-02-27T10:03:53.937Z,1.95
2023-02-27T10:06:26.289Z,1.50
2023-02-27T10:09:19.897Z,1.40
2023-02-27T10:11:56.019Z,1.77
2023-02-27T10:14:38.726Z,1.58
2023-02-27T10:17:14.179Z,1.45
2023-02-27T10:19:44.565Z,1.65
2023-02-27T10:22:18.671Z,1.48
2023-02-27T10:24:51.493Z,2.03
2023-02-27T10:27:21.338Z,1.70
2023-02-27T10:29:48.828Z,2.08
2023-02-27T10:32:27.028Z,1.45
2023-02-27T10:35:16.798Z,1.73
2023-02-27T10:37:52.845Z,1.42
2023-02-27T10:40:20.844Z,1.80
2023-02-27T10:42:48.318Z,1.40
2023-02-27T10:45:16.461Z,1.40
2023-02-27T10:47:44.171Z,2.17
2023-02-27T10:50:27.114Z,1.40
2023-02-27T10:53:00.971Z,1.20
2023-02-27T10:55:33.262Z,1.13
2023-02-27T10:58:02.801Z,1.55
2023-02-27T11:00:41.687Z,1.50
2023-02-27T11:03:35.881Z,1.40
2023-02-27T11:06:24.919Z,1.70
2023-02-27T11:09:14.191Z,1.67
2023-02-27T11:11:41.572Z,1.55
2023-02-27T11:14:17.931Z,1.20
2023-02-27T11:17:02.484Z,1.67
2023-02-27T11:19:36.431Z,1.45
2023-02-27T11:22:20.262Z,1.10
2023-02-27T11:24:48.712Z,1.52
2023-02-27T11:27:26.851Z,1.40
2023-02-27T11:29:58.323Z,2.15
2023-02-27T11:32:32.919Z,1.17
2023-02-27T11:35:01.471Z,1.60
2023-02-27T11:37:36.051Z,1.60
2023-02-27T11:40:03.158Z,1.48
2023-02-27T11:42:35.062Z,1.27
2023-02-27T11:45:09.127Z,1.63
2023-02-27T11:47:40.557Z,1.52
2023-02-27T11:50:32.877Z,1.60
2023-02-27T11:53:15.143Z,1.50
2023-02-27T11:55:44.147Z,1.80
2023-02-27T11:58:19.722Z,1.92
2023-02-27T12:00:57.916Z,2.00
2023-02-27T12:03:40.834Z,1.77
2023-02-27T12:06:17.741Z,1.92
2023-02-27T12:08:54.803Z,2.33
2023-02-27T12:11:31.128Z,1.73
2023-02-27T12:14:16.859Z,2.20
2023-02-27T12:16:51.303Z,1.90
2023-02-27T12:19:44.365Z,2.42
2023-02-27T12:22:34.089Z,2.42
2023-02-27T12:25:07.605Z,2.47
2023-02-27T12:27:44.405Z,2.30
2023-02-27T12:30:33.718Z,2.25
2023-02-27T12:33:16.601Z,1.33
2023-02-27T12:35:47.642Z,2.00
2023-02-27T12:38:15.495Z,1.80
2023-02-27T12:41:13.002Z,2.03
2023-02-27T12:43:43.364Z,1.70
2023-02-27T12:46:31.380Z,1.70
2023-02-27T12:49:20.248Z,1.60
2023-02-27T12:52:24.104Z,1.40
2023-02-27T12:54:53.838Z,1.75
2023-02-27T12:57:36.175Z,1.60
2023-02-27T13:00:17.992Z,2.13
2023-02-27T13:03:19.234Z,2.50
2023-02-27T13:06:24.414Z,2.10
2023-02-27T13:09:22.221Z,2.35
2023-02-27T13:12:04.266Z,2.47
2023-02-27T13:14:44.772Z,2.33
2023-02-27T13:17:21.540Z,2.80
2023-02-27T13:20:07.466Z,3.00
2023-02-27T13:22:41.254Z,2.80
2023-02-27T13:25:14.669Z,2.58
2023-02-27T13:27:58.590Z,9.93
2023-02-27T13:30:49.233Z,5.22
2023-02-27T13:33:34.418Z,3.22
2023-02-27T13:36:17.677Z,3.58
2023-02-27T13:38:47.651Z,2.67
2023-02-27T13:41:20.929Z,2.30
2023-02-27T13:43:53.564Z,2.50
2023-02-27T13:46:29.735Z,2.65
2023-02-27T13:49:28.722Z,2.75
2023-02-27T13:52:01.589Z,2.90
2023-02-27T13:54:32.234Z,2.40
2023-02-27T13:57:01.627Z,2.40
2023-02-27T13:59:33.504Z,3.05
2023-02-27T14:02:07.012Z,2.78
2023-02-27T14:04:55.599Z,2.80
2023-02-27T14:07:26.646Z,2.72
2023-02-27T14:10:22.745Z,2.22
2023-02-27T14:12:49.893Z,2.67
2023-02-27T14:15:23.078Z,2.75
2023-02-27T14:17:52.538Z,2.65
2023-02-27T14:20:31.093Z,3.05
2023-02-27T14:23:16.123Z,2.28
2023-02-27T14:26:02.338Z,2.00
2023-02-27T14:28:45.820Z,1.85
2023-02-27T14:31:41.891Z,1.80
2023-02-27T14:34:15.727Z,1.75
2023-02-27T14:37:13.137Z,2.08
2023-02-27T14:39:42.570Z,1.45
2023-02-27T14:42:30.927Z,2.08
2023-02-27T14:44:59.539Z,1.52
2023-02-27T14:47:32.248Z,1.95
2023-02-27T14:50:01.172Z,1.67
2023-02-27T14:52:31.588Z,2.30
2023-02-27T14:55:17.083Z,1.90
2023-02-27T14:58:19.584Z,1.80
2023-02-27T15:00:50.823Z,1.77
2023-02-27T15:03:19.789Z,1.33
2023-02-27T15:05:50.144Z,1.40
2023-02-27T15:08:41.522Z,1.30
2023-02-27T15:11:14.106Z,1.08
2023-02-27T15:16:25.105Z,1.25
2023-02-27T15:18:57.882Z,1.10
2023-02-27T15:21:27.505Z,1.42
2023-02-27T15:24:03.779Z,1.00
2023-02-27T15:26:38.530Z,1.52
2023-02-27T15:29:08.146Z,1.10
2023-02-27T15:31:35.785Z,1.20
2023-02-27T15:34:04.059Z,1.65
2023-02-27T15:36:36.747Z,1.70
2023-02-27T15:39:05.995Z,1.45
2023-02-27T15:41:33.870Z,2.00
2023-02-27T15:44:03.195Z,2.60
2023-02-27T15:46:31.152Z,1.45
2023-02-27T15:48:58.251Z,1.40
2023-02-27T15:51:27.007Z,1.30
2023-02-27T15:53:58.031Z,1.42
2023-02-27T15:56:32.641Z,1.30
2023-02-27T15:59:01.453Z,1.40
2023-02-27T16:01:32.525Z,1.38
2023-02-27T16:04:03.339Z,1.20
2023-02-27T16:06:40.815Z,1.33
2023-02-27T16:09:21.868Z,1.38
2023-02-27T16:11:49.693Z,1.55
2023-02-27T16:14:36.731Z,1.77
2023-02-27T16:17:04.344Z,1.60
2023-02-27T16:19:32.782Z,1.73
2023-02-27T16:22:13.089Z,1.45
2023-02-27T16:24:40.932Z,1.33
2023-02-27T16:27:16.550Z,1.35
2023-02-27T16:29:45.952Z,1.30
2023-02-27T16:32:25.683Z,1.67
2023-02-27T16:35:07.829Z,1.67
2023-02-27T16:37:40.996Z,1.85
2023-02-27T16:40:23.015Z,2.25
2023-02-27T16:42:51.235Z,1.60
2023-02-27T16:45:21.110Z,2.00
2023-02-27T16:47:53.314Z,1.30
2023-02-27T16:52:59.163Z,1.77
2023-02-27T16:55:27.505Z,1.38
2023-02-27T16:57:57.180Z,1.30
2023-02-27T17:00:24.391Z,1.65
2023-02-27T17:02:52.125Z,1.25
2023-02-27T17:05:19.950Z,2.00
2023-02-27T17:07:49.269Z,1.45
2023-02-27T17:10:19.623Z,1.35
2023-02-27T17:12:48.039Z,1.30
2023-02-27T17:15:16.092Z,2.22
2023-02-27T17:17:43.575Z,1.73
2023-02-27T17:20:13.620Z,2.00
2023-02-27T17:22:43.230Z,1.40
2023-02-27T17:25:11.735Z,1.20
2023-02-27T17:27:39.421Z,1.38
2023-02-27T17:30:08.485Z,1.90
2023-02-27T17:32:36.102Z,1.73
2023-02-27T17:35:04.239Z,1.85
2023-02-27T17:37:31.800Z,2.00
2023-02-27T17:39:58.920Z,2.00
2023-02-27T17:42:26.673Z,2.15
2023-02-27T17:44:53.943Z,2.40
2023-02-27T17:47:21.034Z,1.65
2023-02-27T17:49:48.587Z,1.83
2023-02-27T17:52:16.053Z,2.00
2023-02-27T17:54:44.611Z,2.10
2023-02-27T17:57:13.681Z,1.67
2023-02-27T17:59:43.424Z,1.60
2023-02-27T18:02:12.406Z,1.85
2023-02-27T18:04:39.688Z,1.95
2023-02-27T18:07:07.497Z,1.70
2023-02-27T18:09:34.516Z,2.10
2023-02-27T18:12:03.096Z,1.50
2023-02-27T18:14:30.288Z,2.13
2023-02-27T18:16:58.093Z,1.75
2023-02-27T18:19:25.338Z,1.98
2023-02-27T18:21:52.420Z,2.15
2023-02-27T18:24:20.005Z,2.33
2023-02-27T18:26:48.240Z,2.22
2023-02-27T18:29:16.292Z,2.35
2023-02-27T18:31:45.684Z,2.70
2023-02-27T18:34:13.330Z,2.35
2023-02-27T18:36:40.466Z,2.10
2023-02-27T18:39:08.710Z,2.50
2023-02-27T18:41:36.369Z,2.58
2023-02-27T18:44:04.285Z,2.80
2023-02-27T18:46:32.694Z,2.65
2023-02-27T18:49:00.218Z,3.03
2023-02-27T18:51:27.556Z,3.00
2023-02-27T18:53:54.744Z,2.88
2023-02-27T18:56:24.872Z,2.90
2023-02-27T18:58:52.717Z,3.25
2023-02-27T19:01:28.709Z,2.72
2023-02-27T19:04:01.799Z,4.20
2023-02-27T19:06:29.903Z,3.38
2023-02-27T19:08:57.719Z,3.38
2023-02-27T19:11:33.367Z,3.80
2023-02-27T19:14:03.657Z,8.95
2023-02-27T19:16:31.475Z,16.75
2023-02-27T19:19:00.323Z,27.67
2023-02-27T19:21:27.969Z,14.30
2023-02-27T19:23:55.468Z,9.52
2023-02-27T19:26:24.292Z,5.93
2023-02-27T19:28:54.012Z,4.60
2023-02-27T19:31:23.729Z,4.97
2023-02-27T19:33:53.063Z,4.57
2023-02-27T19:36:22.108Z,4.28
2023-02-27T19:38:50.106Z,4.38
2023-02-27T19:41:18.132Z,4.03
2023-02-27T19:43:46.598Z,3.80
2023-02-27T19:46:20.672Z,3.92
2023-02-27T19:48:48.629Z,4.88
2023-02-27T19:51:16.430Z,6.43
2023-02-27T19:53:47.034Z,6.97
2023-02-27T19:56:19.194Z,6.85
2023-02-27T19:58:48.587Z,5.63
2023-02-27T20:01:26.555Z,5.88
2023-02-27T20:03:55.403Z,5.78
2023-02-27T20:06:24.862Z,5.78
2023-02-27T20:08:53.641Z,6.10
2023-02-27T20:11:22.015Z,5.55
2023-02-27T20:13:52.189Z,5.70
2023-02-27T20:16:23.186Z,5.80
2023-02-27T20:18:51.653Z,5.82
2023-02-27T20:21:23.091Z,5.93
2023-02-27T20:23:52.314Z,5.75
2023-02-27T20:26:22.527Z,6.65
2023-02-27T20:28:52.203Z,6.43
2023-02-27T20:31:23.303Z,6.72
2023-02-27T20:33:51.328Z,6.87
2023-02-27T20:36:18.914Z,6.90
2023-02-27T20:38:46.017Z,6.47
2023-02-27T20:41:19.781Z,6.00
2023-02-27T20:43:48.021Z,6.72
2023-02-27T20:46:18.563Z,7.10
2023-02-27T20:48:46.255Z,7.32
2023-02-27T20:51:16.530Z,6.72
2023-02-27T20:53:47.962Z,6.82
2023-02-27T20:56:15.448Z,7.07
2023-02-27T20:58:42.453Z,7.00
2023-02-27T21:01:11.146Z,6.63
2023-02-27T21:03:40.768Z,6.38
2023-02-27T21:06:10.181Z,6.95
2023-02-27T21:08:39.306Z,6.97
2023-02-27T21:11:11.959Z,6.63
2023-02-27T21:13:39.538Z,6.85
2023-02-27T21:16:09.439Z,6.25
2023-02-27T21:18:38.381Z,6.80
2023-02-27T21:21:10.410Z,6.38
2023-02-27T21:23:41.676Z,6.28
2023-02-27T21:26:22.679Z,5.35
2023-02-27T21:28:55.303Z,5.93
2023-02-27T21:31:24.097Z,6.25
2023-02-27T21:33:53.060Z,5.43
2023-02-27T21:36:29.725Z,6.82
2023-02-27T21:38:59.489Z,7.13
2023-02-27T21:41:27.564Z,6.45
2023-02-27T21:43:59.580Z,6.50
2023-02-27T21:46:27.633Z,6.10
2023-02-27T21:48:54.780Z,6.32
2023-02-27T21:51:38.390Z,5.88
2023-02-27T21:54:09.247Z,6.57
2023-02-27T21:56:38.701Z,6.37
2023-02-27T21:59:05.795Z,6.72
2023-02-27T22:01:33.910Z,6.35
2023-02-27T22:04:01.995Z,6.50
2023-02-27T22:06:34.273Z,6.28
2023-02-27T22:09:05.200Z,6.45
2023-02-27T22:11:34.444Z,6.18
2023-02-27T22:14:02.238Z,7.40
2023-02-27T22:16:29.416Z,7.20
2023-02-27T22:18:56.621Z,7.65
2023-02-27T22:21:25.975Z,7.63
2023-02-27T22:23:55.972Z,6.30
2023-02-27T22:26:27.029Z,7.32
2023-02-27T22:28:57.163Z,6.90
2023-02-27T22:31:30.322Z,6.88
2023-02-27T22:34:01.750Z,5.90
2023-02-27T22:36:30.799Z,5.57
2023-02-27T22:38:57.969Z,6.38
2023-02-27T22:41:29.314Z,5.70
2023-02-27T22:44:00.542Z,5.55
2023-02-27T22:46:35.484Z,5.70
2023-02-27T22:49:08.762Z,6.13
2023-02-27T22:51:36.432Z,6.13
2023-02-27T22:54:05.661Z,6.03
2023-02-27T22:56:34.400Z,5.75
2023-02-27T22:59:01.595Z,6.35
2023-02-27T23:01:31.347Z,6.25
2023-02-27T23:04:02.409Z,7.00
2023-02-27T23:06:32.510Z,5.95
2023-02-27T23:09:00.623Z,5.72
2023-02-27T23:11:28.193Z,5.30
2023-02-27T23:13:58.174Z,5.68
2023-02-27T23:16:25.704Z,5.75
2023-02-27T23:18:58.341Z,4.53
2023-02-27T23:21:34.394Z,5.47
2023-02-27T23:24:13.237Z,4.72
2023-02-27T23:26:45.985Z,5.20
2023-02-27T23:29:13.248Z,4.78
2023-02-27T23:31:40.592Z,5.28
2023-02-27T23:34:07.794Z,5.10
2023-02-27T23:36:38.731Z,5.45
2023-02-27T23:39:56.661Z,5.80
2023-02-27T23:42:42.505Z,5.22
2023-02-27T23:45:27.930Z,4.93
2023-02-27T23:47:57.810Z,5.43
2023-02-27T23:50:34.900Z,6.18
2023-02-27T23:53:02.212Z,5.80
2023-02-27T23:55:31.150Z,4.88
2023-02-27T23:58:01.265Z,6.03
